Boa Nova, Brazil
Current Conditions -  °F | °C
As of 11:00 AM on Thursday 29 Jan 2015 (Local Time) from SBQV Reporting Station
Scattered Clouds Scattered Clouds  
Wind Chill: 84°   Ceiling: Unl
Heat Index: 86°   Visibility: 6mi
Dew Point: 64°   Wind: 9mph
Humidity: 51%   Direction: 140°SE
Pressure: 30.12"   Gusts: NA
Location:  14.36°S, 40.21°W
Report Text: SBQV 291400Z 14008KT 100V170 9999 SCT035 29/18 Q1020
Loading
Personal Weather Stations






























Interactive Weather Map New forecast layout! Learn more

10-Day Weather Forecast

Advertisements
Track Severe Weather on mobile